createdAt,value
2022-07-26T00:00:01.223Z,24.1
2022-07-26T00:01:00.997Z,24.1
2022-07-26T00:02:00.953Z,24
2022-07-26T00:03:00.804Z,24
2022-07-26T00:04:00.646Z,24
2022-07-26T00:05:00.690Z,24
2022-07-26T00:06:01.936Z,24
2022-07-26T00:07:01.165Z,24
2022-07-26T00:08:00.667Z,24
2022-07-26T00:09:00.738Z,24
2022-07-26T00:10:00.677Z,24
2022-07-26T00:11:07.381Z,24
2022-07-26T00:12:02.253Z,23.9
2022-07-26T00:13:02.145Z,23.8
2022-07-26T00:14:01.014Z,23.8
2022-07-26T00:15:00.679Z,23.8
2022-07-26T00:16:05.597Z,23.8
2022-07-26T00:17:01.110Z,23.8
2022-07-26T00:18:00.874Z,23.8
2022-07-26T00:19:00.995Z,23.8
2022-07-26T00:20:00.639Z,23.8
2022-07-26T00:21:08.817Z,23.8
2022-07-26T00:22:02.308Z,23.7
2022-07-26T00:23:02.199Z,23.7
2022-07-26T00:24:02.329Z,23.7
2022-07-26T00:25:01.102Z,23.6
2022-07-26T00:26:08.983Z,23.6
2022-07-26T00:27:01.098Z,23.6
2022-07-26T00:28:04.898Z,23.6
2022-07-26T00:29:01.236Z,23.6
2022-07-26T00:30:00.915Z,23.6
2022-07-26T00:31:10.658Z,23.5
2022-07-26T00:32:03.261Z,23.5
2022-07-26T00:33:01.525Z,23.5
2022-07-26T00:34:00.599Z,23.5
2022-07-26T00:35:00.274Z,23.6
2022-07-26T00:36:13.590Z,23.6
2022-07-26T00:37:00.789Z,23.6
2022-07-26T00:38:00.523Z,23.6
2022-07-26T00:39:00.258Z,23.7
2022-07-26T00:40:00.006Z,23.6
2022-07-26T00:41:14.035Z,23.6
2022-07-26T00:42:01.089Z,23.5
2022-07-26T00:43:00.684Z,23.5
2022-07-26T00:44:00.419Z,23.4
2022-07-26T00:45:00.081Z,23.4
2022-07-26T00:45:59.859Z,23.3
2022-07-26T00:46:59.586Z,23.3
2022-07-26T00:48:01.275Z,23.3
2022-07-26T00:49:01.110Z,23.3
2022-07-26T00:50:00.784Z,23.3
2022-07-26T00:51:00.573Z,23.3
2022-07-26T00:52:00.219Z,23.3
2022-07-26T00:52:59.968Z,23.3
2022-07-26T00:53:59.781Z,23.3
2022-07-26T00:55:02.266Z,23.2
2022-07-26T00:56:02.708Z,23.3
2022-07-26T00:57:01.104Z,23.3
2022-07-26T00:58:00.904Z,23.3
2022-07-26T00:59:00.732Z,23.3
2022-07-26T01:00:00.872Z,23.3
2022-07-26T01:01:00.680Z,23.3
2022-07-26T01:02:00.560Z,23.3
2022-07-26T01:03:00.288Z,23.2
2022-07-26T01:04:00.131Z,23.2
2022-07-26T01:04:59.812Z,23.2
2022-07-26T01:06:02.622Z,23.2
2022-07-26T01:07:02.091Z,23.2
2022-07-26T01:08:01.367Z,23.3
2022-07-26T01:09:00.866Z,23.3
2022-07-26T01:10:00.556Z,23.3
2022-07-26T01:11:00.301Z,23.3
2022-07-26T01:12:00.069Z,23.3
2022-07-26T01:12:59.872Z,23.3
2022-07-26T01:13:59.701Z,23.3
2022-07-26T01:15:02.477Z,23.3
2022-07-26T01:16:02.594Z,23.3
2022-07-26T01:17:01.218Z,23.3
2022-07-26T01:18:01.032Z,23.3
2022-07-26T01:19:00.849Z,23.3
2022-07-26T01:20:00.570Z,23.3
2022-07-26T01:21:00.381Z,23.3
2022-07-26T01:22:00.428Z,23.3
2022-07-26T01:23:00.325Z,23.3
2022-07-26T01:24:00.169Z,23.2
2022-07-26T01:24:59.848Z,23.2
2022-07-26T01:26:01.586Z,23.2
2022-07-26T01:27:00.674Z,23.2
2022-07-26T01:28:01.493Z,23.1
2022-07-26T01:29:01.105Z,23.1
2022-07-26T01:30:00.744Z,23.1
2022-07-26T01:31:00.747Z,23
2022-07-26T01:32:01.547Z,23
2022-07-26T01:33:01.379Z,23
2022-07-26T01:34:01.550Z,23
2022-07-26T01:35:01.036Z,23
2022-07-26T01:36:00.930Z,23
2022-07-26T01:37:00.700Z,23
2022-07-26T01:38:00.472Z,23
2022-07-26T01:39:00.160Z,23
2022-07-26T01:39:59.849Z,23
2022-07-26T01:41:02.324Z,23
2022-07-26T01:42:00.881Z,23
2022-07-26T01:43:00.518Z,23
2022-07-26T01:44:00.298Z,23
2022-07-26T01:44:59.998Z,22.9
2022-07-26T01:46:00.365Z,22.8
2022-07-26T01:47:00.430Z,22.8
2022-07-26T01:48:00.216Z,22.8
2022-07-26T01:48:59.949Z,22.9
2022-07-26T01:50:00.405Z,22.9
2022-07-26T01:51:00.103Z,22.9
2022-07-26T01:51:59.867Z,23
2022-07-26T01:52:59.853Z,23
2022-07-26T01:54:02.235Z,23
2022-07-26T01:55:02.395Z,23
2022-07-26T01:56:00.967Z,23
2022-07-26T01:57:00.645Z,23
2022-07-26T01:58:00.539Z,23
2022-07-26T01:59:00.162Z,23
2022-07-26T01:59:59.875Z,23
2022-07-26T02:00:59.627Z,23
2022-07-26T02:02:02.109Z,23
2022-07-26T02:03:02.462Z,23
2022-07-26T02:04:01.309Z,23
2022-07-26T02:05:01.413Z,23
2022-07-26T02:06:01.347Z,23
2022-07-26T02:07:05.298Z,23
2022-07-26T02:08:01.174Z,22.9
2022-07-26T02:09:02.926Z,22.9
2022-07-26T02:10:00.670Z,22.9
2022-07-26T02:11:00.465Z,23
2022-07-26T02:12:01.370Z,23
2022-07-26T02:13:01.883Z,23
2022-07-26T02:14:01.616Z,23
2022-07-26T02:15:01.022Z,23
2022-07-26T02:16:00.827Z,22.9
2022-07-26T02:17:00.761Z,22.9
2022-07-26T02:18:00.599Z,22.9
2022-07-26T02:19:01.136Z,22.9
2022-07-26T02:20:01.147Z,22.9
2022-07-26T02:21:00.830Z,22.9
2022-07-26T02:22:01.468Z,22.8
2022-07-26T02:23:02.881Z,22.8
2022-07-26T02:24:02.692Z,22.8
2022-07-26T02:25:05.010Z,22.8
2022-07-26T02:26:00.821Z,22.8
2022-07-26T02:27:03.063Z,22.7
2022-07-26T02:28:02.229Z,22.7
2022-07-26T02:29:00.778Z,22.6
2022-07-26T02:30:00.492Z,22.6
2022-07-26T02:31:00.266Z,22.6
2022-07-26T02:32:07.624Z,22.6
2022-07-26T02:33:01.035Z,22.6
2022-07-26T02:34:01.479Z,22.6
2022-07-26T02:35:00.723Z,22.6
2022-07-26T02:36:00.450Z,22.6
2022-07-26T02:37:10.722Z,22.6
2022-07-26T02:38:02.169Z,22.5
2022-07-26T02:39:01.351Z,22.5
2022-07-26T02:40:00.858Z,22.5
2022-07-26T02:41:00.596Z,22.5
2022-07-26T02:42:11.511Z,22.5
2022-07-26T02:43:02.658Z,22.3
2022-07-26T02:44:02.079Z,22.3
2022-07-26T02:45:02.048Z,22.3
2022-07-26T02:46:02.091Z,22.4
2022-07-26T02:47:12.853Z,22.4
2022-07-26T02:48:01.331Z,22.4
2022-07-26T02:49:00.744Z,22.4
2022-07-26T02:50:00.615Z,22.4
2022-07-26T02:51:00.327Z,22.4
2022-07-26T02:52:15.015Z,22.4
2022-07-26T02:53:01.493Z,22.5
2022-07-26T02:54:02.828Z,22.5
2022-07-26T02:55:01.490Z,22.5
2022-07-26T02:56:02.532Z,22.5
2022-07-26T02:57:01.155Z,22.5
2022-07-26T02:58:00.808Z,22.4
2022-07-26T02:59:00.722Z,22.4
2022-07-26T03:00:00.409Z,22.5
2022-07-26T03:01:00.078Z,22.5
2022-07-26T03:01:59.771Z,22.5
2022-07-26T03:03:02.568Z,22.5
2022-07-26T03:04:02.277Z,22.5
2022-07-26T03:05:02.650Z,22.5
2022-07-26T03:06:02.830Z,22.5
2022-07-26T03:07:02.426Z,22.5
2022-07-26T03:08:02.775Z,22.4
2022-07-26T03:09:02.164Z,22.3
2022-07-26T03:10:02.692Z,22.3
2022-07-26T03:11:00.964Z,22.3
2022-07-26T03:12:00.652Z,22.3
2022-07-26T03:13:00.376Z,22.3
2022-07-26T03:14:02.003Z,22.3
2022-07-26T03:15:02.417Z,22.3
2022-07-26T03:16:01.173Z,22.3
2022-07-26T03:17:00.941Z,22.3
2022-07-26T03:18:00.623Z,22.3
2022-07-26T03:19:00.315Z,22.3
2022-07-26T03:20:00.108Z,22.3
2022-07-26T03:20:59.889Z,22.3
2022-07-26T03:21:59.592Z,22.3
2022-07-26T03:23:00.130Z,22.3
2022-07-26T03:23:59.986Z,22.3
2022-07-26T03:24:59.779Z,22.3
2022-07-26T03:26:02.574Z,22.3
2022-07-26T03:27:00.854Z,22.3
2022-07-26T03:28:00.456Z,22.3
2022-07-26T03:29:00.271Z,22.2
2022-07-26T03:29:59.963Z,22.3
2022-07-26T03:30:59.833Z,22.2
2022-07-26T03:32:02.055Z,22.2
2022-07-26T03:33:00.592Z,22.2
2022-07-26T03:34:03.297Z,22.2
2022-07-26T03:35:02.195Z,22.2
2022-07-26T03:36:01.307Z,22.2
2022-07-26T03:37:00.696Z,22.2
2022-07-26T03:38:00.349Z,22.2
2022-07-26T03:39:00.324Z,22.2
2022-07-26T03:40:00.025Z,22.3
2022-07-26T03:40:59.742Z,22.3
2022-07-26T03:42:03.018Z,22.3
2022-07-26T03:43:01.495Z,22.3
2022-07-26T03:44:00.838Z,22.3
2022-07-26T03:45:00.785Z,22.3
2022-07-26T03:46:00.534Z,22.3
2022-07-26T03:47:00.475Z,22.3
2022-07-26T03:48:00.159Z,22.3
2022-07-26T03:49:00.528Z,22.3
2022-07-26T03:50:00.243Z,22.3
2022-07-26T03:50:59.994Z,22.3
2022-07-26T03:51:59.800Z,22.3
2022-07-26T03:53:02.651Z,22.3
2022-07-26T03:54:00.898Z,22.3
2022-07-26T03:55:00.741Z,22.3
2022-07-26T03:56:01.084Z,22.3
2022-07-26T03:57:00.845Z,22.3
2022-07-26T03:58:00.550Z,22.3
2022-07-26T03:59:00.241Z,22.3
2022-07-26T03:59:59.949Z,22.3
2022-07-26T04:01:00.899Z,22.2
2022-07-26T04:02:00.944Z,22.2
2022-07-26T04:03:00.757Z,22.2
2022-07-26T04:04:00.551Z,22.2
2022-07-26T04:05:00.877Z,22.1
2022-07-26T04:06:00.633Z,22.2
2022-07-26T04:07:03.163Z,22.2
2022-07-26T04:08:01.073Z,22.2
2022-07-26T04:09:02.247Z,22.2
2022-07-26T04:10:00.937Z,22.2
2022-07-26T04:11:00.639Z,22.2
2022-07-26T04:12:00.369Z,22.2
2022-07-26T04:13:00.857Z,22.2
2022-07-26T04:14:00.494Z,22.2
2022-07-26T04:15:00.710Z,22.2
2022-07-26T04:16:00.400Z,22.2
2022-07-26T04:17:00.500Z,22.1
2022-07-26T04:18:01.243Z,22.1
2022-07-26T04:19:01.029Z,22.1
2022-07-26T04:20:00.813Z,22
2022-07-26T04:21:00.595Z,22
2022-07-26T04:22:00.399Z,22
2022-07-26T04:23:02.923Z,22
2022-07-26T04:24:01.272Z,22
2022-07-26T04:25:00.636Z,22
2022-07-26T04:26:00.390Z,22
2022-07-26T04:27:00.128Z,22
2022-07-26T04:28:05.750Z,22
2022-07-26T04:29:00.801Z,22
2022-07-26T04:30:00.572Z,22
2022-07-26T04:31:00.545Z,22
2022-07-26T04:32:00.280Z,22
2022-07-26T04:33:07.733Z,22
2022-07-26T04:34:01.210Z,22
2022-07-26T04:35:01.753Z,22
2022-07-26T04:36:00.899Z,22
2022-07-26T04:37:00.679Z,22
2022-07-26T04:38:11.781Z,22
2022-07-26T04:39:02.375Z,22
2022-07-26T04:40:02.490Z,22
2022-07-26T04:41:01.139Z,22
2022-07-26T04:42:00.921Z,22
2022-07-26T04:43:16.296Z,21.9
2022-07-26T04:44:00.738Z,22
2022-07-26T04:45:05.852Z,21.9
2022-07-26T04:46:00.763Z,22
2022-07-26T04:47:00.798Z,22
2022-07-26T04:48:00.826Z,22
2022-07-26T04:49:00.747Z,22
2022-07-26T04:50:00.998Z,22
2022-07-26T04:51:00.685Z,22.1
2022-07-26T04:52:00.335Z,22.1
2022-07-26T04:52:59.987Z,22.1
2022-07-26T04:53:59.638Z,22.1
2022-07-26T04:55:02.925Z,22.1
2022-07-26T04:56:01.594Z,22.1
2022-07-26T04:57:00.646Z,22.1
2022-07-26T04:58:00.541Z,22.1
2022-07-26T04:59:00.882Z,22.1
2022-07-26T05:00:20.389Z,22.1
2022-07-26T05:01:09.897Z,22.1
2022-07-26T05:02:01.238Z,22.1
2022-07-26T05:03:01.176Z,22.1
2022-07-26T05:04:00.949Z,22.1
2022-07-26T05:05:01.250Z,22.2
2022-07-26T05:06:00.902Z,22.2
2022-07-26T05:07:00.573Z,22.3
2022-07-26T05:08:00.310Z,22.3
2022-07-26T05:08:59.961Z,22.3
2022-07-26T05:09:59.690Z,22.3
2022-07-26T05:11:01.453Z,22.3
2022-07-26T05:12:00.853Z,22.3
2022-07-26T05:13:00.530Z,22.3
2022-07-26T05:14:00.176Z,22.4
2022-07-26T05:14:59.953Z,22.4
2022-07-26T05:16:01.925Z,22.4
2022-07-26T05:17:08.967Z,22.3
2022-07-26T05:18:00.668Z,22.3
2022-07-26T05:19:01.389Z,22.4
2022-07-26T05:20:03.159Z,22.4
2022-07-26T05:21:01.223Z,22.4
2022-07-26T05:22:00.990Z,22.4
2022-07-26T05:23:00.646Z,22.5
2022-07-26T05:24:00.299Z,22.5
2022-07-26T05:25:00.007Z,22.5
2022-07-26T05:25:59.708Z,22.5
2022-07-26T05:27:02.347Z,22.5
2022-07-26T05:28:02.398Z,22.5
2022-07-26T05:29:01.250Z,22.5
2022-07-26T05:30:00.937Z,22.5
2022-07-26T05:31:00.876Z,22.5
2022-07-26T05:32:02.189Z,22.5
2022-07-26T05:33:00.672Z,22.5
2022-07-26T05:34:00.291Z,22.5
2022-07-26T05:35:00.756Z,22.5
2022-07-26T05:36:01.591Z,22.5
2022-07-26T05:37:02.615Z,22.5
2022-07-26T05:38:02.526Z,22.5
2022-07-26T05:39:02.176Z,22.5
2022-07-26T05:40:01.224Z,22.5
2022-07-26T05:41:00.936Z,22.5
2022-07-26T05:42:00.622Z,22.6
2022-07-26T05:43:00.279Z,22.6
2022-07-26T05:44:00.524Z,22.6
2022-07-26T05:45:00.272Z,22.6
2022-07-26T05:46:00.787Z,22.7
2022-07-26T05:47:01.232Z,22.7
2022-07-26T05:48:01.013Z,22.8
2022-07-26T05:49:01.252Z,22.8
2022-07-26T05:50:00.978Z,22.8
2022-07-26T05:51:00.669Z,22.8
2022-07-26T05:52:01.469Z,22.8
2022-07-26T05:53:01.546Z,22.8
2022-07-26T05:54:01.226Z,22.8
2022-07-26T05:55:00.913Z,22.8
2022-07-26T05:56:00.651Z,22.8
2022-07-26T05:57:00.324Z,22.7
2022-07-26T05:58:00.016Z,22.7
2022-07-26T05:58:59.654Z,22.7
2022-07-26T06:00:01.315Z,22.7
2022-07-26T06:01:01.115Z,22.7
2022-07-26T06:02:01.455Z,22.6
2022-07-26T06:03:00.967Z,22.6
2022-07-26T06:04:00.781Z,22.6
2022-07-26T06:05:00.567Z,22.5
2022-07-26T06:06:00.705Z,22.5
2022-07-26T06:07:00.403Z,22.5
2022-07-26T06:08:00.086Z,22.5
2022-07-26T06:09:01.213Z,22.5
2022-07-26T06:10:00.915Z,22.5
2022-07-26T06:11:00.624Z,22.5
2022-07-26T06:12:00.440Z,22.5
2022-07-26T06:13:00.253Z,22.5
2022-07-26T06:14:01.802Z,22.5
2022-07-26T06:15:00.955Z,22.5
2022-07-26T06:16:01.033Z,22.5
2022-07-26T06:17:00.921Z,22.6
2022-07-26T06:18:00.775Z,22.6
2022-07-26T06:19:03.077Z,22.6
2022-07-26T06:20:02.272Z,22.6
2022-07-26T06:21:02.337Z,22.6
2022-07-26T06:22:01.546Z,22.7
2022-07-26T06:23:03.128Z,22.7
2022-07-26T06:24:06.151Z,22.8
2022-07-26T06:25:00.804Z,22.8
2022-07-26T06:26:00.462Z,22.8
2022-07-26T06:27:04.879Z,22.9
2022-07-26T06:28:01.235Z,22.9
2022-07-26T06:29:06.478Z,23
2022-07-26T06:30:01.250Z,23
2022-07-26T06:31:01.054Z,23
2022-07-26T06:32:00.858Z,23
2022-07-26T06:33:00.662Z,23
2022-07-26T06:34:09.892Z,23
2022-07-26T06:35:01.500Z,23
2022-07-26T06:36:01.024Z,23
2022-07-26T06:37:00.685Z,23
2022-07-26T06:38:01.406Z,23
2022-07-26T06:39:12.995Z,23
2022-07-26T06:40:01.124Z,23
2022-07-26T06:41:00.874Z,23.1
2022-07-26T06:42:00.535Z,23.1
2022-07-26T06:43:04.400Z,23.1
2022-07-26T06:44:16.719Z,23.1
2022-07-26T06:45:03.089Z,23.1
2022-07-26T06:46:00.841Z,23.1
2022-07-26T06:47:00.602Z,23.1
2022-07-26T06:48:00.793Z,23.1
2022-07-26T06:49:00.499Z,23.1
2022-07-26T06:50:00.290Z,23.1
2022-07-26T06:51:00.066Z,23.1
2022-07-26T06:51:59.982Z,23.2
2022-07-26T06:52:59.666Z,23.3
2022-07-26T06:54:02.238Z,23.3
2022-07-26T06:55:02.160Z,23.3
2022-07-26T06:56:01.091Z,23.3
2022-07-26T06:57:01.555Z,23.3
2022-07-26T06:58:01.125Z,23.3
2022-07-26T06:59:01.730Z,23.3
2022-07-26T07:00:00.901Z,23.3
2022-07-26T07:01:00.797Z,23.3
2022-07-26T07:02:00.890Z,23.3
2022-07-26T07:03:00.628Z,23.3
2022-07-26T07:04:00.355Z,23.3
2022-07-26T07:05:00.224Z,23.3
2022-07-26T07:06:00.079Z,23.3
2022-07-26T07:06:59.875Z,23.3
2022-07-26T07:08:00.782Z,23.4
2022-07-26T07:09:01.306Z,23.4
2022-07-26T07:10:01.236Z,23.3
2022-07-26T07:11:01.357Z,23.3
2022-07-26T07:12:05.556Z,23.2
2022-07-26T07:13:00.630Z,23.2
2022-07-26T07:14:00.294Z,23.1
2022-07-26T07:15:00.151Z,23.1
2022-07-26T07:16:00.368Z,23.1
2022-07-26T07:17:00.255Z,23.1
2022-07-26T07:18:00.065Z,23.1
2022-07-26T07:18:59.726Z,23.1
2022-07-26T07:20:02.425Z,23.1
2022-07-26T07:21:02.345Z,23.1
2022-07-26T07:22:00.664Z,23.1
2022-07-26T07:23:01.682Z,23.1
2022-07-26T07:24:02.072Z,23.1
2022-07-26T07:25:02.882Z,23.1
2022-07-26T07:26:00.613Z,23.1
2022-07-26T07:27:00.611Z,23
2022-07-26T07:28:00.284Z,23
2022-07-26T07:28:59.996Z,22.9
2022-07-26T07:30:01.259Z,22.8
2022-07-26T07:31:00.991Z,22.8
2022-07-26T07:32:03.450Z,22.8
2022-07-26T07:33:00.959Z,22.8
2022-07-26T07:34:01.185Z,22.7
2022-07-26T07:35:01.200Z,22.7
2022-07-26T07:36:00.725Z,22.6
2022-07-26T07:37:00.367Z,22.6
2022-07-26T07:38:00.599Z,22.6
2022-07-26T07:39:05.941Z,22.6
2022-07-26T07:40:01.303Z,22.6
2022-07-26T07:41:01.029Z,22.6
2022-07-26T07:42:00.805Z,22.6
2022-07-26T07:43:00.486Z,22.5
2022-07-26T07:44:00.231Z,22.5
2022-07-26T07:45:00.027Z,22.5
2022-07-26T07:45:59.746Z,22.5
2022-07-26T07:47:02.290Z,22.5
2022-07-26T07:48:01.479Z,22.6
2022-07-26T07:49:01.129Z,22.6
2022-07-26T07:50:00.881Z,22.6
2022-07-26T07:51:00.575Z,22.6
2022-07-26T07:52:00.866Z,22.6
2022-07-26T07:53:00.569Z,22.6
2022-07-26T07:54:05.150Z,22.6
2022-07-26T07:55:36.753Z,22.5
2022-07-26T07:56:02.462Z,22.5
2022-07-26T07:57:01.521Z,22.5
2022-07-26T07:58:01.002Z,22.5
2022-07-26T07:59:00.711Z,22.5
2022-07-26T08:00:00.669Z,22.5
2022-07-26T08:01:00.970Z,22.5
2022-07-26T08:02:00.733Z,22.5
2022-07-26T08:03:00.438Z,22.6
2022-07-26T08:04:00.190Z,22.6
2022-07-26T08:05:04.803Z,22.6
2022-07-26T08:06:01.144Z,22.6
2022-07-26T08:07:00.867Z,22.7
2022-07-26T08:08:00.542Z,22.7
2022-07-26T08:09:00.236Z,22.7
2022-07-26T08:09:59.908Z,22.7
2022-07-26T08:10:59.729Z,22.7
2022-07-26T08:12:01.495Z,22.8
2022-07-26T08:13:01.417Z,22.8
2022-07-26T08:14:00.737Z,22.8
2022-07-26T08:15:00.435Z,22.8
2022-07-26T08:16:00.892Z,22.9
2022-07-26T08:17:00.881Z,22.9
2022-07-26T08:18:00.634Z,23
2022-07-26T08:19:00.750Z,23
2022-07-26T08:20:00.959Z,23
2022-07-26T08:21:02.421Z,23.1
2022-07-26T08:22:02.580Z,23.1
2022-07-26T08:23:01.287Z,23.2
2022-07-26T08:24:00.979Z,23.2
2022-07-26T08:25:00.734Z,23.3
2022-07-26T08:26:04.693Z,23.3
2022-07-26T08:27:01.111Z,23.4
2022-07-26T08:28:03.492Z,23.4
2022-07-26T08:29:00.815Z,23.4
2022-07-26T08:30:00.723Z,23.4
2022-07-26T08:31:00.621Z,23.3
2022-07-26T08:32:00.415Z,23.3
2022-07-26T08:33:00.233Z,23.3
2022-07-26T08:33:59.917Z,23.3
2022-07-26T08:35:17.850Z,23.4
2022-07-26T08:36:00.669Z,23.4
2022-07-26T08:37:16.656Z,23.4
2022-07-26T08:38:00.663Z,23.3
2022-07-26T08:39:00.370Z,23.3
2022-07-26T08:40:03.086Z,23.3
2022-07-26T08:41:01.077Z,23.3
2022-07-26T08:42:00.893Z,23.2
2022-07-26T08:43:00.841Z,23.2
2022-07-26T08:44:00.746Z,23.2
2022-07-26T08:45:08.289Z,23.3
2022-07-26T08:46:01.370Z,23.2
2022-07-26T08:47:00.952Z,23.2
2022-07-26T08:48:17.440Z,23.2
2022-07-26T08:49:00.677Z,23.1
2022-07-26T08:50:09.843Z,23.1
2022-07-26T08:51:01.478Z,23
2022-07-26T08:52:01.086Z,23
2022-07-26T08:53:00.881Z,23
2022-07-26T08:54:07.862Z,23
2022-07-26T08:55:11.400Z,23.1
2022-07-26T08:56:07.963Z,23.1
2022-07-26T08:57:01.066Z,23.1
2022-07-26T08:58:00.959Z,23.2
2022-07-26T08:59:00.634Z,23.3
2022-07-26T09:00:13.741Z,23.2
2022-07-26T09:01:01.518Z,23.3
2022-07-26T09:02:01.144Z,23.3
2022-07-26T09:03:00.634Z,23.3
2022-07-26T09:04:00.397Z,23.4
2022-07-26T09:05:13.878Z,23.4
2022-07-26T09:06:00.762Z,23.5
2022-07-26T09:07:00.570Z,23.5
2022-07-26T09:08:00.213Z,23.5
2022-07-26T09:08:59.960Z,23.6
2022-07-26T09:10:14.397Z,23.6
2022-07-26T09:11:00.784Z,23.6
2022-07-26T09:12:00.492Z,23.6
2022-07-26T09:13:00.212Z,23.6
2022-07-26T09:13:59.908Z,23.6
2022-07-26T09:14:59.595Z,23.7
2022-07-26T09:16:02.303Z,23.8
2022-07-26T09:17:02.097Z,23.8
2022-07-26T09:18:01.555Z,24
2022-07-26T09:19:00.835Z,24
2022-07-26T09:20:00.531Z,24
2022-07-26T09:21:00.243Z,24
2022-07-26T09:21:59.916Z,24
2022-07-26T09:22:59.545Z,23.9
2022-07-26T09:24:01.188Z,23.9
2022-07-26T09:25:00.847Z,23.8
2022-07-26T09:26:00.646Z,23.8
2022-07-26T09:27:00.647Z,23.9
2022-07-26T09:28:00.328Z,23.9
2022-07-26T09:28:59.981Z,24
2022-07-26T09:29:59.719Z,24
2022-07-26T09:31:02.209Z,24
2022-07-26T09:32:01.132Z,24
2022-07-26T09:33:00.865Z,24.1
2022-07-26T09:34:01.246Z,24.1
2022-07-26T09:35:00.534Z,24.1
2022-07-26T09:36:00.234Z,24.2
2022-07-26T09:36:59.903Z,24.3
2022-07-26T09:37:59.635Z,24.3
2022-07-26T09:39:02.207Z,24.5
2022-07-26T09:40:01.392Z,24.5
2022-07-26T09:41:00.978Z,24.6
2022-07-26T09:42:26.108Z,24.6
2022-07-26T09:43:00.699Z,24.6
2022-07-26T09:44:00.390Z,24.6
2022-07-26T09:45:00.245Z,24.6
2022-07-26T09:45:59.994Z,24.6
2022-07-26T09:47:01.186Z,24.7
2022-07-26T09:48:00.928Z,24.8
2022-07-26T09:49:11.053Z,24.8
2022-07-26T09:50:01.069Z,24.8
2022-07-26T09:51:00.834Z,24.8
2022-07-26T09:52:00.569Z,24.8
2022-07-26T09:53:00.255Z,24.8
2022-07-26T09:53:59.937Z,24.6
2022-07-26T09:54:59.636Z,24.6
2022-07-26T09:56:02.223Z,24.6
2022-07-26T09:57:02.250Z,24.6
2022-07-26T09:58:01.944Z,24.5
2022-07-26T09:59:01.919Z,24.4
2022-07-26T10:00:00.604Z,24.3
2022-07-26T10:01:02.496Z,24.3
2022-07-26T10:02:01.448Z,24.2
2022-07-26T10:03:01.182Z,24.2
2022-07-26T10:04:01.860Z,24.1
2022-07-26T10:05:00.840Z,24.1
2022-07-26T10:06:00.491Z,24.1
2022-07-26T10:07:00.149Z,24.1
2022-07-26T10:07:59.929Z,24.1
2022-07-26T10:08:59.626Z,24.2
2022-07-26T10:10:01.336Z,24.2
2022-07-26T10:11:01.050Z,24.2
2022-07-26T10:12:00.826Z,24.2
2022-07-26T10:13:01.049Z,24.2
2022-07-26T10:14:00.819Z,24.2
2022-07-26T10:15:00.489Z,24.2
2022-07-26T10:16:00.452Z,24.2
2022-07-26T10:17:00.820Z,24.1
2022-07-26T10:18:01.126Z,24.1
2022-07-26T10:19:02.035Z,24.1
2022-07-26T10:20:00.823Z,24
2022-07-26T10:21:00.738Z,24
2022-07-26T10:22:00.445Z,23.9
2022-07-26T10:23:00.141Z,23.8
2022-07-26T10:23:59.787Z,23.8
2022-07-26T10:25:02.508Z,23.7
2022-07-26T10:26:00.785Z,23.6
2022-07-26T10:27:00.845Z,23.6
2022-07-26T10:28:00.500Z,23.6
2022-07-26T10:29:00.215Z,23.7
2022-07-26T10:29:59.875Z,23.7
2022-07-26T10:30:59.736Z,23.6
2022-07-26T10:32:01.747Z,23.6
2022-07-26T10:33:01.326Z,23.6
2022-07-26T10:34:01.037Z,23.6
2022-07-26T10:35:00.722Z,23.6
2022-07-26T10:36:00.365Z,23.6
2022-07-26T10:37:00.031Z,23.7
2022-07-26T10:37:59.826Z,23.8
2022-07-26T10:39:02.099Z,23.8
2022-07-26T10:40:02.409Z,23.8
2022-07-26T10:41:00.934Z,23.9
2022-07-26T10:42:00.990Z,24
2022-07-26T10:43:12.141Z,24
2022-07-26T10:44:00.686Z,24.1
2022-07-26T10:45:00.391Z,24.1
2022-07-26T10:46:01.824Z,24.1
2022-07-26T10:47:01.223Z,24.1
2022-07-26T10:48:00.970Z,24.1
2022-07-26T10:49:00.761Z,24.1
2022-07-26T10:50:00.514Z,24.1
2022-07-26T10:51:06.390Z,24.1
2022-07-26T10:52:01.086Z,24.3
2022-07-26T10:53:00.749Z,24.3
2022-07-26T10:54:00.476Z,24.3
2022-07-26T10:55:00.401Z,24.5
2022-07-26T10:56:07.248Z,24.5
2022-07-26T10:57:01.712Z,24.5
2022-07-26T10:58:01.292Z,24.6
2022-07-26T10:59:00.997Z,24.6
2022-07-26T11:00:00.788Z,24.6
2022-07-26T11:01:11.918Z,24.8
2022-07-26T11:02:01.060Z,24.8
2022-07-26T11:03:00.839Z,25
2022-07-26T11:04:00.786Z,25
2022-07-26T11:05:00.476Z,25.1
2022-07-26T11:06:14.142Z,25.1
2022-07-26T11:07:01.005Z,25
2022-07-26T11:08:01.050Z,25
2022-07-26T11:09:01.846Z,25
2022-07-26T11:10:00.983Z,25
2022-07-26T11:11:00.760Z,25
2022-07-26T11:12:00.464Z,25
2022-07-26T11:13:00.421Z,25
2022-07-26T11:14:00.456Z,25.1
2022-07-26T11:15:00.443Z,25
2022-07-26T11:16:02.625Z,25
2022-07-26T11:17:01.012Z,25
2022-07-26T11:18:00.803Z,25
2022-07-26T11:19:00.763Z,25
2022-07-26T11:20:00.724Z,25
2022-07-26T11:21:00.439Z,25
2022-07-26T11:22:00.194Z,25
2022-07-26T11:23:00.506Z,25
2022-07-26T11:24:00.252Z,25
2022-07-26T11:25:00.181Z,25
2022-07-26T11:26:02.300Z,25
2022-07-26T11:27:01.063Z,25
2022-07-26T11:28:00.827Z,25
2022-07-26T11:29:00.922Z,25.1
2022-07-26T11:30:01.229Z,25.1
2022-07-26T11:31:01.037Z,25.1
2022-07-26T11:32:06.832Z,25.2
2022-07-26T11:33:00.796Z,25.3
2022-07-26T11:34:00.419Z,25.3
2022-07-26T11:35:00.140Z,25.4
2022-07-26T11:35:59.904Z,25.5
2022-07-26T11:36:59.735Z,25.5
2022-07-26T11:38:11.316Z,25.5
2022-07-26T11:39:02.548Z,25.5
2022-07-26T11:40:00.745Z,25.6
2022-07-26T11:41:00.563Z,25.6
2022-07-26T11:42:00.222Z,25.5
2022-07-26T11:42:59.913Z,25.5
2022-07-26T11:44:02.388Z,25.5
2022-07-26T11:45:02.004Z,25.6
2022-07-26T11:46:00.975Z,25.6
2022-07-26T11:47:01.804Z,25.6
2022-07-26T11:48:00.693Z,25.8
2022-07-26T11:49:00.463Z,25.8
2022-07-26T11:51:02.183Z,26
2022-07-26T11:52:00.930Z,26
2022-07-26T11:53:00.985Z,26
2022-07-26T11:54:00.635Z,26
2022-07-26T11:55:00.290Z,26
2022-07-26T11:56:00.029Z,26
2022-07-26T11:56:59.743Z,26
2022-07-26T11:58:02.604Z,26
2022-07-26T11:59:01.580Z,26.1
2022-07-26T12:00:02.257Z,26.1
2022-07-26T12:01:01.540Z,26.1
2022-07-26T12:02:00.865Z,26
2022-07-26T12:03:00.668Z,26
2022-07-26T12:04:00.993Z,26
2022-07-26T12:05:00.885Z,26
2022-07-26T12:06:00.820Z,26
2022-07-26T12:07:00.519Z,25.9
2022-07-26T12:08:00.199Z,25.8
2022-07-26T12:08:59.933Z,25.8
2022-07-26T12:09:59.719Z,25.8
2022-07-26T12:11:02.788Z,25.8
2022-07-26T12:12:01.242Z,25.8
2022-07-26T12:13:00.913Z,25.8
2022-07-26T12:14:00.577Z,25.8
2022-07-26T12:15:00.285Z,25.8
2022-07-26T12:16:00.220Z,25.9
2022-07-26T12:17:00.123Z,26
2022-07-26T12:17:59.879Z,26
2022-07-26T12:18:59.531Z,26.1
2022-07-26T12:20:02.248Z,26.1
2022-07-26T12:21:05.601Z,26.2
2022-07-26T12:22:02.205Z,26.2
2022-07-26T12:23:00.663Z,26.2
2022-07-26T12:24:00.349Z,26.2
2022-07-26T12:25:00.112Z,26.2
2022-07-26T12:26:00.179Z,26.2
2022-07-26T12:27:02.626Z,26.2
2022-07-26T12:28:01.124Z,26.2
2022-07-26T12:29:00.876Z,26.3
2022-07-26T12:30:00.615Z,26.2
2022-07-26T12:31:00.458Z,26.2
2022-07-26T12:32:05.723Z,26.1
2022-07-26T12:33:00.970Z,26.2
2022-07-26T12:34:00.615Z,26.2
2022-07-26T12:35:00.407Z,26.2
2022-07-26T12:36:00.101Z,26.2
2022-07-26T12:37:08.181Z,26.1
2022-07-26T12:38:01.069Z,26.1
2022-07-26T12:39:01.311Z,26.1
2022-07-26T12:40:00.835Z,26.1
2022-07-26T12:41:00.512Z,26.1
2022-07-26T12:42:11.162Z,26.1
2022-07-26T12:43:03.208Z,26.1
2022-07-26T12:44:00.849Z,26.1
2022-07-26T12:45:00.557Z,26.1
2022-07-26T12:46:00.392Z,26.1
2022-07-26T12:47:14.496Z,26
2022-07-26T12:48:01.061Z,26
2022-07-26T12:49:01.282Z,25.9
2022-07-26T12:50:01.015Z,25.8
2022-07-26T12:51:01.009Z,25.8
2022-07-26T12:52:16.348Z,25.8
2022-07-26T12:53:00.840Z,25.8
2022-07-26T12:54:00.733Z,25.8
2022-07-26T12:55:00.433Z,25.8
2022-07-26T12:56:00.230Z,25.7
2022-07-26T12:56:59.947Z,25.7
2022-07-26T12:57:59.722Z,25.6
2022-07-26T12:59:02.891Z,25.6
2022-07-26T13:00:02.403Z,25.6
2022-07-26T13:01:00.774Z,25.5
2022-07-26T13:02:00.705Z,25.5
2022-07-26T13:03:00.477Z,25.5
2022-07-26T13:04:00.326Z,25.5
2022-07-26T13:05:00.681Z,25.4
2022-07-26T13:06:00.488Z,25.4
2022-07-26T13:07:00.230Z,25.3
2022-07-26T13:07:59.904Z,25.3
2022-07-26T13:08:59.690Z,25.3
2022-07-26T13:11:01.433Z,25.2
2022-07-26T13:12:01.263Z,25.2
2022-07-26T13:13:00.983Z,25.2
2022-07-26T13:14:00.757Z,25.2
2022-07-26T13:15:00.453Z,25.3
2022-07-26T13:16:00.186Z,25.3
2022-07-26T13:17:00.082Z,25.2
2022-07-26T13:17:59.948Z,25.2
2022-07-26T13:18:59.668Z,25.3
2022-07-26T13:20:01.453Z,25.3
2022-07-26T13:21:01.159Z,25.3
2022-07-26T13:22:01.124Z,25.3
2022-07-26T13:23:01.008Z,25.3
2022-07-26T13:24:00.728Z,25.3
2022-07-26T13:25:00.754Z,25.3
2022-07-26T13:26:01.758Z,25.3
2022-07-26T13:27:00.954Z,25.4
2022-07-26T13:28:00.648Z,25.4
2022-07-26T13:29:00.390Z,25.5
2022-07-26T13:30:00.240Z,25.5